sensor_id;sensor_type;location;lat;lon;timestamp;P1;durP1;ratioP1;P2;durP2;ratioP2
51475;SDS011;37554;50.362;7.568;2022-08-11T00:00:03;2.55;;;1.40;;
51475;SDS011;37554;50.362;7.568;2022-08-11T00:02:34;1.98;;;1.27;;
51475;SDS011;37554;50.362;7.568;2022-08-11T00:07:34;3.97;;;1.55;;
51475;SDS011;37554;50.362;7.568;2022-08-11T00:10:14;1.80;;;1.20;;
51475;SDS011;37554;50.362;7.568;2022-08-11T00:12:42;1.30;;;1.10;;
51475;SDS011;37554;50.362;7.568;2022-08-11T00:15:09;2.85;;;1.20;;
51475;SDS011;37554;50.362;7.568;2022-08-11T00:17:35;1.15;;;1.05;;
51475;SDS011;37554;50.362;7.568;2022-08-11T00:20:06;1.55;;;1.33;;
51475;SDS011;37554;50.362;7.568;2022-08-11T00:22:35;2.05;;;1.60;;
51475;SDS011;37554;50.362;7.568;2022-08-11T00:25:10;1.92;;;1.30;;
51475;SDS011;37554;50.362;7.568;2022-08-11T00:27:38;2.85;;;1.10;;
51475;SDS011;37554;50.362;7.568;2022-08-11T00:30:06;1.38;;;1.17;;
51475;SDS011;37554;50.362;7.568;2022-08-11T00:32:33;1.30;;;1.20;;
51475;SDS011;37554;50.362;7.568;2022-08-11T00:35:02;3.92;;;1.30;;
51475;SDS011;37554;50.362;7.568;2022-08-11T00:37:29;3.35;;;1.50;;
51475;SDS011;37554;50.362;7.568;2022-08-11T00:39:55;4.03;;;1.23;;
51475;SDS011;37554;50.362;7.568;2022-08-11T00:42:26;4.55;;;1.48;;
51475;SDS011;37554;50.362;7.568;2022-08-11T00:56:13;3.00;;;1.35;;
51475;SDS011;37554;50.362;7.568;2022-08-11T01:04:29;3.08;;;1.10;;
51475;SDS011;37554;50.362;7.568;2022-08-11T01:07:32;5.10;;;1.30;;
51475;SDS011;37554;50.362;7.568;2022-08-11T01:18:11;2.72;;;1.38;;
51475;SDS011;37554;50.362;7.568;2022-08-11T01:45:40;2.22;;;1.30;;
51475;SDS011;37554;50.362;7.568;2022-08-11T01:59:44;2.10;;;1.40;;
51475;SDS011;37554;50.362;7.568;2022-08-11T02:01:51;1.40;;;1.17;;
51475;SDS011;37554;50.362;7.568;2022-08-11T02:16:26;1.52;;;1.17;;
51475;SDS011;37554;50.362;7.568;2022-08-11T02:25:06;3.13;;;1.20;;
51475;SDS011;37554;50.362;7.568;2022-08-11T02:27:44;3.67;;;1.30;;
51475;SDS011;37554;50.362;7.568;2022-08-11T02:30:17;5.32;;;1.58;;
51475;SDS011;37554;50.362;7.568;2022-08-11T02:32:57;1.73;;;1.40;;
51475;SDS011;37554;50.362;7.568;2022-08-11T02:44:43;3.15;;;1.40;;
51475;SDS011;37554;50.362;7.568;2022-08-11T02:50:32;1.90;;;1.45;;
51475;SDS011;37554;50.362;7.568;2022-08-11T02:53:18;2.00;;;1.55;;
51475;SDS011;37554;50.362;7.568;2022-08-11T02:56:05;1.58;;;1.30;;
51475;SDS011;37554;50.362;7.568;2022-08-11T03:10:07;1.73;;;1.40;;
51475;SDS011;37554;50.362;7.568;2022-08-11T03:15:40;2.53;;;1.10;;
51475;SDS011;37554;50.362;7.568;2022-08-11T03:18:33;2.63;;;1.45;;
51475;SDS011;37554;50.362;7.568;2022-08-11T03:24:00;1.70;;;1.40;;
51475;SDS011;37554;50.362;7.568;2022-08-11T03:26:42;2.00;;;1.60;;
51475;SDS011;37554;50.362;7.568;2022-08-11T03:29:30;2.92;;;1.40;;
51475;SDS011;37554;50.362;7.568;2022-08-11T03:32:00;1.55;;;1.45;;
51475;SDS011;37554;50.362;7.568;2022-08-11T03:34:31;2.65;;;1.80;;
51475;SDS011;37554;50.362;7.568;2022-08-11T03:37:18;3.03;;;1.30;;
51475;SDS011;37554;50.362;7.568;2022-08-11T03:42:57;1.95;;;1.70;;
51475;SDS011;37554;50.362;7.568;2022-08-11T03:45:30;1.48;;;1.38;;
51475;SDS011;37554;50.362;7.568;2022-08-11T03:50:54;1.42;;;1.33;;
51475;SDS011;37554;50.362;7.568;2022-08-11T04:56:30;1.88;;;1.40;;
51475;SDS011;37554;50.362;7.568;2022-08-11T04:59:39;1.90;;;1.60;;
51475;SDS011;37554;50.362;7.568;2022-08-11T05:11:52;2.65;;;1.63;;
51475;SDS011;37554;50.362;7.568;2022-08-11T05:14:28;3.72;;;2.00;;
51475;SDS011;37554;50.362;7.568;2022-08-11T05:20:28;4.40;;;1.85;;
51475;SDS011;37554;50.362;7.568;2022-08-11T05:23:13;9.73;;;2.05;;
51475;SDS011;37554;50.362;7.568;2022-08-11T05:25:59;3.72;;;1.20;;
51475;SDS011;37554;50.362;7.568;2022-08-11T05:28:49;2.22;;;1.50;;
51475;SDS011;37554;50.362;7.568;2022-08-11T05:34:33;4.05;;;1.40;;
51475;SDS011;37554;50.362;7.568;2022-08-11T05:37:30;1.90;;;1.40;;
51475;SDS011;37554;50.362;7.568;2022-08-11T05:40:03;2.90;;;1.75;;
51475;SDS011;37554;50.362;7.568;2022-08-11T05:42:49;1.55;;;1.45;;
51475;SDS011;37554;50.362;7.568;2022-08-11T05:45:36;3.42;;;1.73;;
51475;SDS011;37554;50.362;7.568;2022-08-11T05:48:20;7.22;;;1.95;;
51475;SDS011;37554;50.362;7.568;2022-08-11T05:51:05;5.60;;;1.90;;
51475;SDS011;37554;50.362;7.568;2022-08-11T05:53:57;3.38;;;1.95;;
51475;SDS011;37554;50.362;7.568;2022-08-11T05:56:47;2.55;;;1.63;;
51475;SDS011;37554;50.362;7.568;2022-08-11T05:59:23;4.45;;;2.05;;
51475;SDS011;37554;50.362;7.568;2022-08-11T06:01:52;3.53;;;1.48;;
51475;SDS011;37554;50.362;7.568;2022-08-11T06:04:24;2.80;;;1.70;;
51475;SDS011;37554;50.362;7.568;2022-08-11T06:06:55;6.07;;;2.35;;
51475;SDS011;37554;50.362;7.568;2022-08-11T06:09:39;3.95;;;1.90;;
51475;SDS011;37554;50.362;7.568;2022-08-11T06:12:16;1.92;;;1.83;;
51475;SDS011;37554;50.362;7.568;2022-08-11T06:14:42;4.13;;;2.10;;
51475;SDS011;37554;50.362;7.568;2022-08-11T06:17:10;5.15;;;2.03;;
51475;SDS011;37554;50.362;7.568;2022-08-11T06:19:41;5.65;;;1.92;;
51475;SDS011;37554;50.362;7.568;2022-08-11T06:22:11;6.13;;;2.17;;
51475;SDS011;37554;50.362;7.568;2022-08-11T06:24:40;2.33;;;1.70;;
51475;SDS011;37554;50.362;7.568;2022-08-11T06:27:18;3.60;;;1.65;;
51475;SDS011;37554;50.362;7.568;2022-08-11T06:29:49;3.85;;;1.92;;
51475;SDS011;37554;50.362;7.568;2022-08-11T06:32:15;4.72;;;1.90;;
51475;SDS011;37554;50.362;7.568;2022-08-11T06:34:57;6.93;;;2.20;;
51475;SDS011;37554;50.362;7.568;2022-08-11T06:37:43;8.48;;;1.92;;
51475;SDS011;37554;50.362;7.568;2022-08-11T06:43:37;2.53;;;1.80;;
51475;SDS011;37554;50.362;7.568;2022-08-11T06:46:10;4.85;;;1.90;;
51475;SDS011;37554;50.362;7.568;2022-08-11T06:48:39;4.47;;;1.83;;
51475;SDS011;37554;50.362;7.568;2022-08-11T06:51:08;3.15;;;1.73;;
51475;SDS011;37554;50.362;7.568;2022-08-11T06:53:41;5.45;;;2.17;;
51475;SDS011;37554;50.362;7.568;2022-08-11T06:56:12;3.67;;;1.83;;
51475;SDS011;37554;50.362;7.568;2022-08-11T06:58:58;7.07;;;1.88;;
51475;SDS011;37554;50.362;7.568;2022-08-11T07:13:13;5.47;;;1.77;;
51475;SDS011;37554;50.362;7.568;2022-08-11T07:15:58;6.03;;;2.08;;
51475;SDS011;37554;50.362;7.568;2022-08-11T07:18:27;4.40;;;1.83;;
51475;SDS011;37554;50.362;7.568;2022-08-11T07:24:03;6.07;;;1.80;;
51475;SDS011;37554;50.362;7.568;2022-08-11T07:26:55;5.70;;;2.03;;
51475;SDS011;37554;50.362;7.568;2022-08-11T07:29:41;5.95;;;2.05;;
51475;SDS011;37554;50.362;7.568;2022-08-11T07:32:19;4.60;;;1.90;;
51475;SDS011;37554;50.362;7.568;2022-08-11T07:34:50;6.88;;;2.20;;
51475;SDS011;37554;50.362;7.568;2022-08-11T07:37:28;3.42;;;2.00;;
51475;SDS011;37554;50.362;7.568;2022-08-11T07:39:57;6.38;;;2.08;;
51475;SDS011;37554;50.362;7.568;2022-08-11T07:42:26;4.97;;;1.70;;
51475;SDS011;37554;50.362;7.568;2022-08-11T07:44:55;5.47;;;2.10;;
51475;SDS011;37554;50.362;7.568;2022-08-11T07:47:41;3.72;;;2.00;;
51475;SDS011;37554;50.362;7.568;2022-08-11T07:50:28;3.35;;;2.00;;
51475;SDS011;37554;50.362;7.568;2022-08-11T07:53:13;5.43;;;2.03;;
51475;SDS011;37554;50.362;7.568;2022-08-11T07:55:41;8.70;;;2.10;;
51475;SDS011;37554;50.362;7.568;2022-08-11T07:58:07;4.15;;;1.80;;
51475;SDS011;37554;50.362;7.568;2022-08-11T08:00:53;7.32;;;2.03;;
51475;SDS011;37554;50.362;7.568;2022-08-11T08:03:39;7.47;;;1.80;;
51475;SDS011;37554;50.362;7.568;2022-08-11T08:06:25;3.67;;;1.92;;
51475;SDS011;37554;50.362;7.568;2022-08-11T08:09:11;4.90;;;2.10;;
51475;SDS011;37554;50.362;7.568;2022-08-11T08:11:56;6.65;;;2.05;;
51475;SDS011;37554;50.362;7.568;2022-08-11T08:14:43;2.88;;;1.80;;
51475;SDS011;37554;50.362;7.568;2022-08-11T08:17:27;2.53;;;1.83;;
51475;SDS011;37554;50.362;7.568;2022-08-11T08:20:15;3.38;;;1.70;;
51475;SDS011;37554;50.362;7.568;2022-08-11T08:22:44;4.20;;;1.75;;
51475;SDS011;37554;50.362;7.568;2022-08-11T08:25:20;2.90;;;1.60;;
51475;SDS011;37554;50.362;7.568;2022-08-11T08:27:53;3.03;;;1.52;;
51475;SDS011;37554;50.362;7.568;2022-08-11T08:30:21;2.10;;;1.70;;
51475;SDS011;37554;50.362;7.568;2022-08-11T08:33:07;1.80;;;1.45;;
51475;SDS011;37554;50.362;7.568;2022-08-11T08:35:34;5.07;;;1.52;;
51475;SDS011;37554;50.362;7.568;2022-08-11T08:38:01;3.30;;;1.45;;
51475;SDS011;37554;50.362;7.568;2022-08-11T08:40:27;3.15;;;1.45;;
51475;SDS011;37554;50.362;7.568;2022-08-11T08:42:54;2.95;;;1.42;;
51475;SDS011;37554;50.362;7.568;2022-08-11T08:45:22;2.55;;;1.52;;
51475;SDS011;37554;50.362;7.568;2022-08-11T08:47:51;1.75;;;1.40;;
51475;SDS011;37554;50.362;7.568;2022-08-11T08:50:21;2.03;;;1.40;;
51475;SDS011;37554;50.362;7.568;2022-08-11T08:52:51;1.90;;;1.30;;
51475;SDS011;37554;50.362;7.568;2022-08-11T08:55:21;1.98;;;1.17;;
51475;SDS011;37554;50.362;7.568;2022-08-11T08:57:48;1.90;;;1.40;;
51475;SDS011;37554;50.362;7.568;2022-08-11T09:00:16;2.60;;;1.30;;
51475;SDS011;37554;50.362;7.568;2022-08-11T09:02:43;2.65;;;1.50;;
51475;SDS011;37554;50.362;7.568;2022-08-11T09:05:09;2.13;;;1.27;;
51475;SDS011;37554;50.362;7.568;2022-08-11T09:07:36;2.00;;;1.30;;
51475;SDS011;37554;50.362;7.568;2022-08-11T09:10:02;1.77;;;1.60;;
51475;SDS011;37554;50.362;7.568;2022-08-11T09:12:30;1.65;;;1.30;;
51475;SDS011;37554;50.362;7.568;2022-08-11T09:14:58;1.58;;;1.02;;
51475;SDS011;37554;50.362;7.568;2022-08-11T09:20:09;1.90;;;0.95;;
51475;SDS011;37554;50.362;7.568;2022-08-11T09:22:40;2.35;;;1.33;;
51475;SDS011;37554;50.362;7.568;2022-08-11T09:25:26;2.90;;;1.17;;
51475;SDS011;37554;50.362;7.568;2022-08-11T09:28:14;2.10;;;1.02;;
51475;SDS011;37554;50.362;7.568;2022-08-11T09:30:41;2.38;;;1.00;;
51475;SDS011;37554;50.362;7.568;2022-08-11T09:33:09;1.40;;;1.00;;
51475;SDS011;37554;50.362;7.568;2022-08-11T09:35:37;1.92;;;1.00;;
51475;SDS011;37554;50.362;7.568;2022-08-11T09:38:06;1.90;;;1.08;;
51475;SDS011;37554;50.362;7.568;2022-08-11T09:40:54;1.75;;;0.95;;
51475;SDS011;37554;50.362;7.568;2022-08-11T09:43:20;2.40;;;1.00;;
51475;SDS011;37554;50.362;7.568;2022-08-11T09:46:05;2.83;;;1.08;;
51475;SDS011;37554;50.362;7.568;2022-08-11T09:48:39;1.17;;;0.80;;
51475;SDS011;37554;50.362;7.568;2022-08-11T09:51:07;1.52;;;0.88;;
51475;SDS011;37554;50.362;7.568;2022-08-11T09:53:36;1.67;;;1.00;;
51475;SDS011;37554;50.362;7.568;2022-08-11T09:56:04;2.58;;;1.10;;
51475;SDS011;37554;50.362;7.568;2022-08-11T09:58:52;2.97;;;0.93;;
51475;SDS011;37554;50.362;7.568;2022-08-11T10:01:19;1.30;;;1.00;;
51475;SDS011;37554;50.362;7.568;2022-08-11T10:03:54;2.70;;;0.90;;
51475;SDS011;37554;50.362;7.568;2022-08-11T10:06:24;1.98;;;0.90;;
51475;SDS011;37554;50.362;7.568;2022-08-11T10:09:10;3.00;;;0.80;;
51475;SDS011;37554;50.362;7.568;2022-08-11T10:11:42;1.13;;;0.80;;
51475;SDS011;37554;50.362;7.568;2022-08-11T10:14:08;1.10;;;0.77;;
51475;SDS011;37554;50.362;7.568;2022-08-11T10:16:53;0.93;;;0.77;;
51475;SDS011;37554;50.362;7.568;2022-08-11T10:19:19;1.30;;;0.80;;
51475;SDS011;37554;50.362;7.568;2022-08-11T10:21:52;1.30;;;0.88;;
51475;SDS011;37554;50.362;7.568;2022-08-11T10:27:42;1.20;;;0.90;;
51475;SDS011;37554;50.362;7.568;2022-08-11T10:30:08;1.33;;;0.88;;
51475;SDS011;37554;50.362;7.568;2022-08-11T10:32:53;0.65;;;0.60;;
51475;SDS011;37554;50.362;7.568;2022-08-11T10:35:40;0.60;;;0.60;;
51475;SDS011;37554;50.362;7.568;2022-08-11T10:38:07;0.80;;;0.63;;
51475;SDS011;37554;50.362;7.568;2022-08-11T10:40:33;2.22;;;1.08;;
51475;SDS011;37554;50.362;7.568;2022-08-11T10:43:01;1.67;;;0.68;;
51475;SDS011;37554;50.362;7.568;2022-08-11T10:45:34;1.45;;;0.77;;
51475;SDS011;37554;50.362;7.568;2022-08-11T10:48:39;0.60;;;0.50;;
51475;SDS011;37554;50.362;7.568;2022-08-11T10:51:05;1.15;;;0.90;;
51475;SDS011;37554;50.362;7.568;2022-08-11T10:53:39;0.90;;;0.50;;
51475;SDS011;37554;50.362;7.568;2022-08-11T10:56:26;0.60;;;0.52;;
51475;SDS011;37554;50.362;7.568;2022-08-11T10:59:18;1.30;;;0.75;;
51475;SDS011;37554;50.362;7.568;2022-08-11T11:01:44;0.70;;;0.70;;
51475;SDS011;37554;50.362;7.568;2022-08-11T11:04:11;1.17;;;0.68;;
51475;SDS011;37554;50.362;7.568;2022-08-11T11:07:14;0.60;;;0.50;;
51475;SDS011;37554;50.362;7.568;2022-08-11T11:09:57;1.52;;;0.60;;
51475;SDS011;37554;50.362;7.568;2022-08-11T11:12:31;1.13;;;0.60;;
51475;SDS011;37554;50.362;7.568;2022-08-11T11:15:18;0.70;;;0.50;;
51475;SDS011;37554;50.362;7.568;2022-08-11T11:18:07;0.68;;;0.55;;
51475;SDS011;37554;50.362;7.568;2022-08-11T11:21:10;0.68;;;0.40;;
51475;SDS011;37554;50.362;7.568;2022-08-11T11:23:42;0.73;;;0.70;;
51475;SDS011;37554;50.362;7.568;2022-08-11T11:37:09;1.13;;;0.70;;
51475;SDS011;37554;50.362;7.568;2022-08-11T11:39:38;0.85;;;0.55;;
51475;SDS011;37554;50.362;7.568;2022-08-11T11:42:05;2.05;;;0.60;;
51475;SDS011;37554;50.362;7.568;2022-08-11T11:44:33;1.27;;;0.50;;
51475;SDS011;37554;50.362;7.568;2022-08-11T11:47:06;0.55;;;0.50;;
51475;SDS011;37554;50.362;7.568;2022-08-11T11:49:35;0.57;;;0.47;;
51475;SDS011;37554;50.362;7.568;2022-08-11T11:52:05;0.57;;;0.50;;
51475;SDS011;37554;50.362;7.568;2022-08-11T11:54:33;0.60;;;0.43;;
51475;SDS011;37554;50.362;7.568;2022-08-11T11:57:01;0.90;;;0.45;;
51475;SDS011;37554;50.362;7.568;2022-08-11T11:59:50;0.60;;;0.60;;
51475;SDS011;37554;50.362;7.568;2022-08-11T12:02:36;0.82;;;0.45;;
51475;SDS011;37554;50.362;7.568;2022-08-11T12:05:04;0.52;;;0.40;;
51475;SDS011;37554;50.362;7.568;2022-08-11T12:07:30;0.82;;;0.45;;
51475;SDS011;37554;50.362;7.568;2022-08-11T12:10:15;0.45;;;0.45;;
51475;SDS011;37554;50.362;7.568;2022-08-11T12:12:42;1.25;;;0.50;;
51475;SDS011;37554;50.362;7.568;2022-08-11T12:15:27;0.70;;;0.50;;
51475;SDS011;37554;50.362;7.568;2022-08-11T12:17:54;0.63;;;0.50;;
51475;SDS011;37554;50.362;7.568;2022-08-11T12:20:20;1.13;;;0.47;;
51475;SDS011;37554;50.362;7.568;2022-08-11T12:22:47;0.52;;;0.50;;
51475;SDS011;37554;50.362;7.568;2022-08-11T12:25:33;0.68;;;0.30;;
51475;SDS011;37554;50.362;7.568;2022-08-11T12:28:18;0.60;;;0.40;;
51475;SDS011;37554;50.362;7.568;2022-08-11T12:30:46;0.77;;;0.50;;
51475;SDS011;37554;50.362;7.568;2022-08-11T12:33:14;0.60;;;0.55;;
51475;SDS011;37554;50.362;7.568;2022-08-11T12:35:40;0.57;;;0.50;;
51475;SDS011;37554;50.362;7.568;2022-08-11T12:38:07;0.60;;;0.50;;
51475;SDS011;37554;50.362;7.568;2022-08-11T12:40:34;1.00;;;0.52;;
51475;SDS011;37554;50.362;7.568;2022-08-11T12:43:21;0.47;;;0.47;;
51475;SDS011;37554;50.362;7.568;2022-08-11T12:46:21;1.27;;;0.40;;
51475;SDS011;37554;50.362;7.568;2022-08-11T12:48:50;0.85;;;0.40;;
51475;SDS011;37554;50.362;7.568;2022-08-11T12:51:40;1.65;;;0.40;;
51475;SDS011;37554;50.362;7.568;2022-08-11T12:57:15;1.02;;;0.47;;
51475;SDS011;37554;50.362;7.568;2022-08-11T13:00:02;0.55;;;0.50;;
51475;SDS011;37554;50.362;7.568;2022-08-11T13:02:52;0.30;;;0.30;;
51475;SDS011;37554;50.362;7.568;2022-08-11T13:05:37;0.98;;;0.50;;
51475;SDS011;37554;50.362;7.568;2022-08-11T13:08:03;0.50;;;0.40;;
51475;SDS011;37554;50.362;7.568;2022-08-11T13:10:31;0.52;;;0.32;;
51475;SDS011;37554;50.362;7.568;2022-08-11T13:13:16;0.50;;;0.40;;
51475;SDS011;37554;50.362;7.568;2022-08-11T13:15:45;1.08;;;0.40;;
51475;SDS011;37554;50.362;7.568;2022-08-11T13:18:14;0.40;;;0.40;;
51475;SDS011;37554;50.362;7.568;2022-08-11T13:20:41;0.93;;;0.40;;
51475;SDS011;37554;50.362;7.568;2022-08-11T13:23:08;0.68;;;0.40;;
51475;SDS011;37554;50.362;7.568;2022-08-11T13:25:37;0.52;;;0.40;;
51475;SDS011;37554;50.362;7.568;2022-08-11T13:28:04;0.40;;;0.40;;
51475;SDS011;37554;50.362;7.568;2022-08-11T13:30:30;0.98;;;0.40;;
51475;SDS011;37554;50.362;7.568;2022-08-11T13:33:15;0.40;;;0.40;;
51475;SDS011;37554;50.362;7.568;2022-08-11T13:35:42;0.85;;;0.40;;
51475;SDS011;37554;50.362;7.568;2022-08-11T13:38:14;0.98;;;0.38;;
51475;SDS011;37554;50.362;7.568;2022-08-11T13:40:41;0.40;;;0.40;;
51475;SDS011;37554;50.362;7.568;2022-08-11T13:43:08;0.65;;;0.40;;
51475;SDS011;37554;50.362;7.568;2022-08-11T13:45:34;0.45;;;0.45;;
51475;SDS011;37554;50.362;7.568;2022-08-11T13:48:02;1.02;;;0.60;;
51475;SDS011;37554;50.362;7.568;2022-08-11T13:50:32;0.35;;;0.30;;
51475;SDS011;37554;50.362;7.568;2022-08-11T13:53:23;0.52;;;0.40;;
51475;SDS011;37554;50.362;7.568;2022-08-11T13:55:49;0.90;;;0.45;;
51475;SDS011;37554;50.362;7.568;2022-08-11T13:58:16;0.50;;;0.40;;
51475;SDS011;37554;50.362;7.568;2022-08-11T14:00:44;0.50;;;0.40;;
51475;SDS011;37554;50.362;7.568;2022-08-11T14:03:14;0.50;;;0.45;;
51475;SDS011;37554;50.362;7.568;2022-08-11T14:05:48;0.40;;;0.40;;
51475;SDS011;37554;50.362;7.568;2022-08-11T14:08:19;0.30;;;0.30;;
51475;SDS011;37554;50.362;7.568;2022-08-11T14:10:50;0.35;;;0.35;;
51475;SDS011;37554;50.362;7.568;2022-08-11T14:13:37;1.10;;;0.40;;
51475;SDS011;37554;50.362;7.568;2022-08-11T14:16:06;1.05;;;0.40;;
51475;SDS011;37554;50.362;7.568;2022-08-11T14:18:37;0.40;;;0.40;;
51475;SDS011;37554;50.362;7.568;2022-08-11T14:21:08;0.98;;;0.45;;
51475;SDS011;37554;50.362;7.568;2022-08-11T14:23:55;0.40;;;0.40;;
51475;SDS011;37554;50.362;7.568;2022-08-11T14:26:23;0.63;;;0.45;;
51475;SDS011;37554;50.362;7.568;2022-08-11T14:31:53;0.63;;;0.45;;
51475;SDS011;37554;50.362;7.568;2022-08-11T14:34:22;0.40;;;0.40;;
51475;SDS011;37554;50.362;7.568;2022-08-11T14:36:52;0.57;;;0.40;;
51475;SDS011;37554;50.362;7.568;2022-08-11T14:39:30;0.47;;;0.40;;
51475;SDS011;37554;50.362;7.568;2022-08-11T14:42:02;1.15;;;0.47;;
51475;SDS011;37554;50.362;7.568;2022-08-11T14:44:50;1.08;;;0.40;;
51475;SDS011;37554;50.362;7.568;2022-08-11T14:47:39;0.55;;;0.40;;
51475;SDS011;37554;50.362;7.568;2022-08-11T14:50:10;0.47;;;0.45;;
51475;SDS011;37554;50.362;7.568;2022-08-11T14:52:48;0.65;;;0.52;;
51475;SDS011;37554;50.362;7.568;2022-08-11T14:55:16;1.20;;;0.55;;
51475;SDS011;37554;50.362;7.568;2022-08-11T14:58:02;0.52;;;0.50;;
51475;SDS011;37554;50.362;7.568;2022-08-11T15:00:29;0.65;;;0.30;;
51475;SDS011;37554;50.362;7.568;2022-08-11T15:02:58;0.43;;;0.40;;
51475;SDS011;37554;50.362;7.568;2022-08-11T15:05:34;0.88;;;0.50;;
51475;SDS011;37554;50.362;7.568;2022-08-11T15:08:00;0.70;;;0.50;;
51475;SDS011;37554;50.362;7.568;2022-08-11T15:10:28;0.55;;;0.50;;
51475;SDS011;37554;50.362;7.568;2022-08-11T15:12:53;1.65;;;0.40;;
51475;SDS011;37554;50.362;7.568;2022-08-11T15:15:20;1.13;;;0.50;;
51475;SDS011;37554;50.362;7.568;2022-08-11T15:18:06;0.30;;;0.30;;
51475;SDS011;37554;50.362;7.568;2022-08-11T15:20:35;0.65;;;0.47;;
51475;SDS011;37554;50.362;7.568;2022-08-11T15:23:19;0.60;;;0.40;;
51475;SDS011;37554;50.362;7.568;2022-08-11T15:26:14;0.40;;;0.40;;
51475;SDS011;37554;50.362;7.568;2022-08-11T15:28:46;1.10;;;0.50;;
51475;SDS011;37554;50.362;7.568;2022-08-11T15:31:32;0.73;;;0.52;;
51475;SDS011;37554;50.362;7.568;2022-08-11T15:34:19;0.45;;;0.40;;
51475;SDS011;37554;50.362;7.568;2022-08-11T15:37:06;0.40;;;0.40;;
51475;SDS011;37554;50.362;7.568;2022-08-11T15:42:48;0.90;;;0.60;;
51475;SDS011;37554;50.362;7.568;2022-08-11T15:45:39;0.52;;;0.43;;
51475;SDS011;37554;50.362;7.568;2022-08-11T15:48:15;0.50;;;0.50;;
51475;SDS011;37554;50.362;7.568;2022-08-11T15:50:53;1.25;;;0.60;;
51475;SDS011;37554;50.362;7.568;2022-08-11T15:53:24;0.73;;;0.52;;
51475;SDS011;37554;50.362;7.568;2022-08-11T15:55:55;0.73;;;0.50;;
51475;SDS011;37554;50.362;7.568;2022-08-11T15:58:22;0.50;;;0.50;;
51475;SDS011;37554;50.362;7.568;2022-08-11T16:01:08;0.50;;;0.40;;
51475;SDS011;37554;50.362;7.568;2022-08-11T16:03:55;0.40;;;0.40;;
51475;SDS011;37554;50.362;7.568;2022-08-11T16:06:48;0.40;;;0.38;;
51475;SDS011;37554;50.362;7.568;2022-08-11T16:09:16;0.50;;;0.47;;
51475;SDS011;37554;50.362;7.568;2022-08-11T16:11:47;0.85;;;0.68;;
51475;SDS011;37554;50.362;7.568;2022-08-11T16:14:15;1.95;;;0.43;;
51475;SDS011;37554;50.362;7.568;2022-08-11T16:17:02;0.60;;;0.50;;
51475;SDS011;37554;50.362;7.568;2022-08-11T16:19:30;1.02;;;0.60;;
51475;SDS011;37554;50.362;7.568;2022-08-11T16:21:59;0.70;;;0.50;;
51475;SDS011;37554;50.362;7.568;2022-08-11T16:24:29;1.05;;;0.50;;
51475;SDS011;37554;50.362;7.568;2022-08-11T16:26:56;0.55;;;0.50;;
51475;SDS011;37554;50.362;7.568;2022-08-11T16:29:23;0.47;;;0.40;;
51475;SDS011;37554;50.362;7.568;2022-08-11T16:31:50;0.63;;;0.50;;
51475;SDS011;37554;50.362;7.568;2022-08-11T16:34:37;2.15;;;0.68;;
51475;SDS011;37554;50.362;7.568;2022-08-11T16:37:22;0.68;;;0.45;;
51475;SDS011;37554;50.362;7.568;2022-08-11T16:40:07;0.43;;;0.40;;
51475;SDS011;37554;50.362;7.568;2022-08-11T16:42:34;1.25;;;0.60;;
51475;SDS011;37554;50.362;7.568;2022-08-11T16:45:19;1.02;;;0.50;;
51475;SDS011;37554;50.362;7.568;2022-08-11T16:48:05;1.52;;;0.52;;
51475;SDS011;37554;50.362;7.568;2022-08-11T16:50:33;0.60;;;0.50;;
51475;SDS011;37554;50.362;7.568;2022-08-11T16:52:59;0.80;;;0.47;;
51475;SDS011;37554;50.362;7.568;2022-08-11T16:55:25;1.58;;;0.57;;
51475;SDS011;37554;50.362;7.568;2022-08-11T16:57:55;0.77;;;0.60;;
51475;SDS011;37554;50.362;7.568;2022-08-11T17:00:40;0.50;;;0.40;;
51475;SDS011;37554;50.362;7.568;2022-08-11T17:03:06;1.67;;;0.50;;
51475;SDS011;37554;50.362;7.568;2022-08-11T17:05:51;0.47;;;0.43;;
51475;SDS011;37554;50.362;7.568;2022-08-11T17:08:41;0.70;;;0.60;;
51475;SDS011;37554;50.362;7.568;2022-08-11T17:11:33;0.65;;;0.45;;
51475;SDS011;37554;50.362;7.568;2022-08-11T17:14:36;0.68;;;0.60;;
51475;SDS011;37554;50.362;7.568;2022-08-11T17:17:11;0.65;;;0.50;;
51475;SDS011;37554;50.362;7.568;2022-08-11T17:19:41;0.70;;;0.50;;
51475;SDS011;37554;50.362;7.568;2022-08-11T17:22:12;0.82;;;0.50;;
51475;SDS011;37554;50.362;7.568;2022-08-11T17:24:56;0.40;;;0.40;;
51475;SDS011;37554;50.362;7.568;2022-08-11T17:27:24;2.95;;;0.60;;
51475;SDS011;37554;50.362;7.568;2022-08-11T17:29:56;0.93;;;0.60;;
51475;SDS011;37554;50.362;7.568;2022-08-11T17:32:30;4.78;;;0.95;;
51475;SDS011;37554;50.362;7.568;2022-08-11T17:35:21;1.48;;;1.00;;
51475;SDS011;37554;50.362;7.568;2022-08-11T17:40:28;5.13;;;1.00;;
51475;SDS011;37554;50.362;7.568;2022-08-11T17:42:55;4.53;;;1.10;;
51475;SDS011;37554;50.362;7.568;2022-08-11T17:45:41;2.95;;;0.85;;
51475;SDS011;37554;50.362;7.568;2022-08-11T17:48:37;2.70;;;0.82;;
51475;SDS011;37554;50.362;7.568;2022-08-11T17:51:07;4.05;;;0.70;;
51475;SDS011;37554;50.362;7.568;2022-08-11T17:53:41;2.58;;;0.70;;
51475;SDS011;37554;50.362;7.568;2022-08-11T17:56:27;2.20;;;0.60;;
51475;SDS011;37554;50.362;7.568;2022-08-11T17:59:14;1.00;;;0.60;;
51475;SDS011;37554;50.362;7.568;2022-08-11T18:02:01;0.52;;;0.50;;
51475;SDS011;37554;50.362;7.568;2022-08-11T18:04:51;4.10;;;0.82;;
51475;SDS011;37554;50.362;7.568;2022-08-11T18:07:19;1.02;;;0.75;;
51475;SDS011;37554;50.362;7.568;2022-08-11T18:10:05;1.30;;;0.93;;
51475;SDS011;37554;50.362;7.568;2022-08-11T18:12:51;0.93;;;0.70;;
51475;SDS011;37554;50.362;7.568;2022-08-11T18:15:38;0.70;;;0.70;;
51475;SDS011;37554;50.362;7.568;2022-08-11T18:18:23;0.80;;;0.60;;
51475;SDS011;37554;50.362;7.568;2022-08-11T18:21:08;1.15;;;0.80;;
51475;SDS011;37554;50.362;7.568;2022-08-11T18:23:56;1.05;;;0.50;;
51475;SDS011;37554;50.362;7.568;2022-08-11T18:26:47;0.55;;;0.55;;
51475;SDS011;37554;50.362;7.568;2022-08-11T18:29:33;0.85;;;0.50;;
51475;SDS011;37554;50.362;7.568;2022-08-11T18:32:21;0.68;;;0.60;;
51475;SDS011;37554;50.362;7.568;2022-08-11T18:35:07;3.08;;;0.82;;
51475;SDS011;37554;50.362;7.568;2022-08-11T18:37:53;1.60;;;0.70;;
51475;SDS011;37554;50.362;7.568;2022-08-11T18:40:41;0.90;;;0.70;;
51475;SDS011;37554;50.362;7.568;2022-08-11T18:43:30;2.17;;;0.75;;
51475;SDS011;37554;50.362;7.568;2022-08-11T18:46:16;0.82;;;0.60;;
51475;SDS011;37554;50.362;7.568;2022-08-11T18:49:09;1.10;;;0.75;;
51475;SDS011;37554;50.362;7.568;2022-08-11T18:51:57;0.70;;;0.70;;
51475;SDS011;37554;50.362;7.568;2022-08-11T18:54:43;0.85;;;0.60;;
51475;SDS011;37554;50.362;7.568;2022-08-11T18:57:31;1.00;;;0.90;;
51475;SDS011;37554;50.362;7.568;2022-08-11T19:00:21;0.70;;;0.60;;
51475;SDS011;37554;50.362;7.568;2022-08-11T19:03:08;0.63;;;0.63;;
51475;SDS011;37554;50.362;7.568;2022-08-11T19:05:55;0.70;;;0.70;;
51475;SDS011;37554;50.362;7.568;2022-08-11T19:08:51;1.20;;;0.55;;
51475;SDS011;37554;50.362;7.568;2022-08-11T19:11:39;1.30;;;0.70;;
51475;SDS011;37554;50.362;7.568;2022-08-11T19:14:25;0.63;;;0.63;;
51475;SDS011;37554;50.362;7.568;2022-08-11T19:17:12;0.65;;;0.65;;
51475;SDS011;37554;50.362;7.568;2022-08-11T19:19:59;0.70;;;0.70;;
51475;SDS011;37554;50.362;7.568;2022-08-11T19:22:46;0.60;;;0.60;;
51475;SDS011;37554;50.362;7.568;2022-08-11T19:25:31;0.60;;;0.60;;
51475;SDS011;37554;50.362;7.568;2022-08-11T19:28:17;0.80;;;0.68;;
51475;SDS011;37554;50.362;7.568;2022-08-11T19:31:03;0.90;;;0.80;;
51475;SDS011;37554;50.362;7.568;2022-08-11T19:33:48;0.98;;;0.60;;
51475;SDS011;37554;50.362;7.568;2022-08-11T19:36:33;0.80;;;0.60;;
51475;SDS011;37554;50.362;7.568;2022-08-11T19:39:18;1.13;;;0.60;;
51475;SDS011;37554;50.362;7.568;2022-08-11T19:42:07;0.70;;;0.70;;
51475;SDS011;37554;50.362;7.568;2022-08-11T19:44:53;1.63;;;0.80;;
51475;SDS011;37554;50.362;7.568;2022-08-11T19:47:39;1.45;;;0.65;;